sensor_id;sensor_type;location;lat;lon;timestamp;P1;durP1;ratioP1;P2;durP2;ratioP2
20369;SDS011;10344;47.592;9.600;2024-01-07T00:01:36;6.65;;;5.38;;
20369;SDS011;10344;47.592;9.600;2024-01-07T00:04:03;6.30;;;5.70;;
20369;SDS011;10344;47.592;9.600;2024-01-07T00:06:35;6.67;;;5.93;;
20369;SDS011;10344;47.592;9.600;2024-01-07T00:09:01;6.90;;;5.88;;
20369;SDS011;10344;47.592;9.600;2024-01-07T00:11:30;6.70;;;5.97;;
20369;SDS011;10344;47.592;9.600;2024-01-07T00:13:56;6.78;;;5.90;;
20369;SDS011;10344;47.592;9.600;2024-01-07T00:16:22;6.57;;;5.90;;
20369;SDS011;10344;47.592;9.600;2024-01-07T00:18:53;6.88;;;5.85;;
20369;SDS011;10344;47.592;9.600;2024-01-07T00:21:19;6.20;;;5.40;;
20369;SDS011;10344;47.592;9.600;2024-01-07T00:23:45;6.50;;;5.63;;
20369;SDS011;10344;47.592;9.600;2024-01-07T00:26:11;6.60;;;5.60;;
20369;SDS011;10344;47.592;9.600;2024-01-07T00:28:39;6.97;;;5.68;;
20369;SDS011;10344;47.592;9.600;2024-01-07T00:31:05;7.40;;;6.18;;
20369;SDS011;10344;47.592;9.600;2024-01-07T00:33:34;6.00;;;5.40;;
20369;SDS011;10344;47.592;9.600;2024-01-07T00:36:01;6.85;;;5.90;;
20369;SDS011;10344;47.592;9.600;2024-01-07T00:38:26;5.97;;;5.37;;
20369;SDS011;10344;47.592;9.600;2024-01-07T00:40:52;6.70;;;6.00;;
20369;SDS011;10344;47.592;9.600;2024-01-07T00:43:18;6.40;;;5.80;;
20369;SDS011;10344;47.592;9.600;2024-01-07T00:45:46;6.65;;;5.90;;
20369;SDS011;10344;47.592;9.600;2024-01-07T00:48:11;7.37;;;6.43;;
20369;SDS011;10344;47.592;9.600;2024-01-07T00:50:38;7.18;;;6.30;;
20369;SDS011;10344;47.592;9.600;2024-01-07T00:53:06;7.18;;;5.80;;
20369;SDS011;10344;47.592;9.600;2024-01-07T00:55:31;7.40;;;6.03;;
20369;SDS011;10344;47.592;9.600;2024-01-07T00:57:57;6.80;;;5.70;;
20369;SDS011;10344;47.592;9.600;2024-01-07T01:00:23;6.97;;;5.60;;
20369;SDS011;10344;47.592;9.600;2024-01-07T01:02:48;6.63;;;5.65;;
20369;SDS011;10344;47.592;9.600;2024-01-07T01:05:16;6.75;;;5.72;;
20369;SDS011;10344;47.592;9.600;2024-01-07T01:07:45;6.50;;;5.47;;
20369;SDS011;10344;47.592;9.600;2024-01-07T01:10:13;7.47;;;6.20;;
20369;SDS011;10344;47.592;9.600;2024-01-07T01:12:41;7.07;;;5.82;;
20369;SDS011;10344;47.592;9.600;2024-01-07T01:15:17;6.43;;;5.78;;
20369;SDS011;10344;47.592;9.600;2024-01-07T01:17:45;7.40;;;6.35;;
20369;SDS011;10344;47.592;9.600;2024-01-07T01:20:13;6.27;;;5.67;;
20369;SDS011;10344;47.592;9.600;2024-01-07T01:22:39;6.75;;;6.05;;
20369;SDS011;10344;47.592;9.600;2024-01-07T01:25:06;8.02;;;6.20;;
20369;SDS011;10344;47.592;9.600;2024-01-07T01:27:32;7.60;;;6.32;;
20369;SDS011;10344;47.592;9.600;2024-01-07T01:29:58;7.00;;;6.10;;
20369;SDS011;10344;47.592;9.600;2024-01-07T01:32:23;6.93;;;5.80;;
20369;SDS011;10344;47.592;9.600;2024-01-07T01:34:49;7.00;;;5.90;;
20369;SDS011;10344;47.592;9.600;2024-01-07T01:37:14;6.47;;;5.77;;
20369;SDS011;10344;47.592;9.600;2024-01-07T01:39:40;7.28;;;6.10;;
20369;SDS011;10344;47.592;9.600;2024-01-07T01:42:08;7.70;;;6.43;;
20369;SDS011;10344;47.592;9.600;2024-01-07T01:44:34;8.13;;;6.05;;
20369;SDS011;10344;47.592;9.600;2024-01-07T01:47:02;7.13;;;6.07;;
20369;SDS011;10344;47.592;9.600;2024-01-07T01:49:30;6.57;;;5.80;;
20369;SDS011;10344;47.592;9.600;2024-01-07T01:51:55;7.85;;;6.45;;
20369;SDS011;10344;47.592;9.600;2024-01-07T01:54:24;6.63;;;5.70;;
20369;SDS011;10344;47.592;9.600;2024-01-07T01:56:50;6.68;;;5.55;;
20369;SDS011;10344;47.592;9.600;2024-01-07T01:59:16;6.78;;;5.97;;
20369;SDS011;10344;47.592;9.600;2024-01-07T02:01:43;7.25;;;6.18;;
20369;SDS011;10344;47.592;9.600;2024-01-07T02:04:09;6.90;;;6.10;;
20369;SDS011;10344;47.592;9.600;2024-01-07T02:06:35;6.60;;;5.90;;
20369;SDS011;10344;47.592;9.600;2024-01-07T02:09:01;7.22;;;6.10;;
20369;SDS011;10344;47.592;9.600;2024-01-07T02:11:27;6.70;;;5.78;;
20369;SDS011;10344;47.592;9.600;2024-01-07T02:13:53;6.78;;;6.05;;
20369;SDS011;10344;47.592;9.600;2024-01-07T02:16:18;7.67;;;6.57;;
20369;SDS011;10344;47.592;9.600;2024-01-07T02:18:47;7.03;;;6.32;;
20369;SDS011;10344;47.592;9.600;2024-01-07T02:21:13;8.00;;;6.72;;
20369;SDS011;10344;47.592;9.600;2024-01-07T02:23:41;8.10;;;6.57;;
20369;SDS011;10344;47.592;9.600;2024-01-07T02:26:07;8.50;;;7.30;;
20369;SDS011;10344;47.592;9.600;2024-01-07T02:28:33;7.53;;;6.43;;
20369;SDS011;10344;47.592;9.600;2024-01-07T02:30:59;8.10;;;6.60;;
20369;SDS011;10344;47.592;9.600;2024-01-07T02:33:25;7.63;;;6.00;;
20369;SDS011;10344;47.592;9.600;2024-01-07T02:35:51;7.82;;;6.18;;
20369;SDS011;10344;47.592;9.600;2024-01-07T02:38:19;8.43;;;6.67;;
20369;SDS011;10344;47.592;9.600;2024-01-07T02:40:44;8.18;;;6.75;;
20369;SDS011;10344;47.592;9.600;2024-01-07T02:43:10;7.97;;;6.83;;
20369;SDS011;10344;47.592;9.600;2024-01-07T02:45:40;7.63;;;6.47;;
20369;SDS011;10344;47.592;9.600;2024-01-07T02:48:06;8.98;;;7.20;;
20369;SDS011;10344;47.592;9.600;2024-01-07T02:50:34;7.37;;;6.43;;
20369;SDS011;10344;47.592;9.600;2024-01-07T02:53:00;8.23;;;6.78;;
20369;SDS011;10344;47.592;9.600;2024-01-07T02:55:25;8.77;;;6.87;;
20369;SDS011;10344;47.592;9.600;2024-01-07T02:57:51;7.97;;;6.72;;
20369;SDS011;10344;47.592;9.600;2024-01-07T03:00:16;8.83;;;6.43;;
20369;SDS011;10344;47.592;9.600;2024-01-07T03:02:42;8.25;;;6.80;;
20369;SDS011;10344;47.592;9.600;2024-01-07T03:05:08;8.07;;;6.43;;
20369;SDS011;10344;47.592;9.600;2024-01-07T03:07:34;8.50;;;6.55;;
20369;SDS011;10344;47.592;9.600;2024-01-07T03:09:59;8.13;;;6.75;;
20369;SDS011;10344;47.592;9.600;2024-01-07T03:12:27;9.45;;;7.53;;
20369;SDS011;10344;47.592;9.600;2024-01-07T03:14:53;8.03;;;6.73;;
20369;SDS011;10344;47.592;9.600;2024-01-07T03:17:19;8.40;;;7.20;;
20369;SDS011;10344;47.592;9.600;2024-01-07T03:19:47;8.15;;;6.93;;
20369;SDS011;10344;47.592;9.600;2024-01-07T03:22:13;9.03;;;7.43;;
20369;SDS011;10344;47.592;9.600;2024-01-07T03:24:38;9.73;;;7.30;;
20369;SDS011;10344;47.592;9.600;2024-01-07T03:27:04;9.75;;;7.65;;
20369;SDS011;10344;47.592;9.600;2024-01-07T03:29:29;9.00;;;7.13;;
20369;SDS011;10344;47.592;9.600;2024-01-07T03:31:55;9.82;;;7.20;;
20369;SDS011;10344;47.592;9.600;2024-01-07T03:34:21;9.37;;;7.27;;
20369;SDS011;10344;47.592;9.600;2024-01-07T03:36:48;8.70;;;7.20;;
20369;SDS011;10344;47.592;9.600;2024-01-07T03:39:14;9.05;;;7.30;;
20369;SDS011;10344;47.592;9.600;2024-01-07T03:41:40;9.70;;;7.57;;
20369;SDS011;10344;47.592;9.600;2024-01-07T03:44:08;8.90;;;7.00;;
20369;SDS011;10344;47.592;9.600;2024-01-07T03:46:33;9.23;;;7.20;;
20369;SDS011;10344;47.592;9.600;2024-01-07T03:49:01;10.25;;;7.57;;
20369;SDS011;10344;47.592;9.600;2024-01-07T03:51:29;9.88;;;7.40;;
20369;SDS011;10344;47.592;9.600;2024-01-07T03:53:54;9.07;;;7.68;;
20369;SDS011;10344;47.592;9.600;2024-01-07T03:56:20;9.27;;;7.87;;
20369;SDS011;10344;47.592;9.600;2024-01-07T03:58:45;10.43;;;8.00;;
20369;SDS011;10344;47.592;9.600;2024-01-07T04:01:15;9.63;;;7.43;;
20369;SDS011;10344;47.592;9.600;2024-01-07T04:03:41;10.07;;;7.70;;
20369;SDS011;10344;47.592;9.600;2024-01-07T04:06:07;10.07;;;7.83;;
20369;SDS011;10344;47.592;9.600;2024-01-07T04:08:33;9.32;;;7.63;;
20369;SDS011;10344;47.592;9.600;2024-01-07T04:11:01;8.80;;;7.30;;
20369;SDS011;10344;47.592;9.600;2024-01-07T04:13:27;9.20;;;7.60;;
20369;SDS011;10344;47.592;9.600;2024-01-07T04:15:55;9.85;;;7.72;;
20369;SDS011;10344;47.592;9.600;2024-01-07T04:18:20;9.53;;;7.47;;
20369;SDS011;10344;47.592;9.600;2024-01-07T04:20:48;9.75;;;7.28;;
20369;SDS011;10344;47.592;9.600;2024-01-07T04:23:14;9.10;;;7.40;;
20369;SDS011;10344;47.592;9.600;2024-01-07T04:25:39;9.70;;;7.43;;
20369;SDS011;10344;47.592;9.600;2024-01-07T04:28:07;8.93;;;7.60;;
20369;SDS011;10344;47.592;9.600;2024-01-07T04:30:35;9.18;;;6.97;;
20369;SDS011;10344;47.592;9.600;2024-01-07T04:33:00;9.02;;;7.13;;
20369;SDS011;10344;47.592;9.600;2024-01-07T04:35:26;9.40;;;7.47;;
20369;SDS011;10344;47.592;9.600;2024-01-07T04:37:51;8.73;;;7.13;;
20369;SDS011;10344;47.592;9.600;2024-01-07T04:40:19;9.43;;;7.07;;
20369;SDS011;10344;47.592;9.600;2024-01-07T04:42:45;8.43;;;6.87;;
20369;SDS011;10344;47.592;9.600;2024-01-07T04:45:10;8.95;;;7.18;;
20369;SDS011;10344;47.592;9.600;2024-01-07T04:47:36;9.50;;;7.45;;
20369;SDS011;10344;47.592;9.600;2024-01-07T04:50:04;8.30;;;6.93;;
20369;SDS011;10344;47.592;9.600;2024-01-07T04:52:30;10.00;;;7.40;;
20369;SDS011;10344;47.592;9.600;2024-01-07T04:54:56;8.82;;;7.40;;
20369;SDS011;10344;47.592;9.600;2024-01-07T04:57:21;8.73;;;7.23;;
20369;SDS011;10344;47.592;9.600;2024-01-07T04:59:48;8.40;;;6.97;;
20369;SDS011;10344;47.592;9.600;2024-01-07T05:02:14;8.45;;;6.70;;
20369;SDS011;10344;47.592;9.600;2024-01-07T05:04:40;8.25;;;6.68;;
20369;SDS011;10344;47.592;9.600;2024-01-07T05:07:06;8.15;;;6.60;;
20369;SDS011;10344;47.592;9.600;2024-01-07T05:09:31;8.50;;;6.73;;
20369;SDS011;10344;47.592;9.600;2024-01-07T05:12:00;8.65;;;6.80;;
20369;SDS011;10344;47.592;9.600;2024-01-07T05:14:26;8.85;;;7.15;;
20369;SDS011;10344;47.592;9.600;2024-01-07T05:16:53;8.15;;;6.45;;
20369;SDS011;10344;47.592;9.600;2024-01-07T05:19:22;8.55;;;7.15;;
20369;SDS011;10344;47.592;9.600;2024-01-07T05:21:48;7.93;;;6.70;;
20369;SDS011;10344;47.592;9.600;2024-01-07T05:24:16;7.85;;;6.60;;
20369;SDS011;10344;47.592;9.600;2024-01-07T05:26:42;7.60;;;6.30;;
20369;SDS011;10344;47.592;9.600;2024-01-07T05:29:09;8.25;;;6.20;;
20369;SDS011;10344;47.592;9.600;2024-01-07T05:31:39;8.32;;;6.35;;
20369;SDS011;10344;47.592;9.600;2024-01-07T05:34:05;7.57;;;6.10;;
20369;SDS011;10344;47.592;9.600;2024-01-07T05:36:31;7.60;;;6.20;;
20369;SDS011;10344;47.592;9.600;2024-01-07T05:38:56;7.28;;;6.05;;
20369;SDS011;10344;47.592;9.600;2024-01-07T05:41:22;7.20;;;5.60;;
20369;SDS011;10344;47.592;9.600;2024-01-07T05:43:48;7.65;;;5.95;;
20369;SDS011;10344;47.592;9.600;2024-01-07T05:46:13;7.67;;;6.37;;
20369;SDS011;10344;47.592;9.600;2024-01-07T05:48:45;7.57;;;6.32;;
20369;SDS011;10344;47.592;9.600;2024-01-07T05:51:13;7.15;;;6.00;;
20369;SDS011;10344;47.592;9.600;2024-01-07T05:53:39;6.93;;;5.43;;
20369;SDS011;10344;47.592;9.600;2024-01-07T05:56:05;6.60;;;5.43;;
20369;SDS011;10344;47.592;9.600;2024-01-07T05:58:31;6.72;;;5.50;;
20369;SDS011;10344;47.592;9.600;2024-01-07T06:00:57;6.20;;;5.25;;
20369;SDS011;10344;47.592;9.600;2024-01-07T06:03:23;6.73;;;5.50;;
20369;SDS011;10344;47.592;9.600;2024-01-07T06:05:49;6.82;;;5.68;;
20369;SDS011;10344;47.592;9.600;2024-01-07T06:08:14;6.97;;;5.63;;
20369;SDS011;10344;47.592;9.600;2024-01-07T06:10:40;5.97;;;4.90;;
20369;SDS011;10344;47.592;9.600;2024-01-07T06:13:08;6.45;;;5.20;;
20369;SDS011;10344;47.592;9.600;2024-01-07T06:15:36;6.53;;;5.60;;
20369;SDS011;10344;47.592;9.600;2024-01-07T06:18:02;6.18;;;5.15;;
20369;SDS011;10344;47.592;9.600;2024-01-07T06:20:28;6.03;;;5.00;;
20369;SDS011;10344;47.592;9.600;2024-01-07T06:22:55;6.90;;;5.43;;
20369;SDS011;10344;47.592;9.600;2024-01-07T06:25:26;6.20;;;5.30;;
20369;SDS011;10344;47.592;9.600;2024-01-07T06:27:54;6.60;;;5.28;;
20369;SDS011;10344;47.592;9.600;2024-01-07T06:30:22;6.32;;;5.32;;
20369;SDS011;10344;47.592;9.600;2024-01-07T06:32:48;6.60;;;5.10;;
20369;SDS011;10344;47.592;9.600;2024-01-07T06:35:13;6.30;;;5.35;;
20369;SDS011;10344;47.592;9.600;2024-01-07T06:37:39;7.50;;;5.80;;
20369;SDS011;10344;47.592;9.600;2024-01-07T06:40:08;6.53;;;5.45;;
20369;SDS011;10344;47.592;9.600;2024-01-07T06:42:36;6.10;;;4.78;;
20369;SDS011;10344;47.592;9.600;2024-01-07T06:45:02;7.20;;;5.70;;
20369;SDS011;10344;47.592;9.600;2024-01-07T06:47:28;6.80;;;5.30;;
20369;SDS011;10344;47.592;9.600;2024-01-07T06:49:54;6.80;;;5.63;;
20369;SDS011;10344;47.592;9.600;2024-01-07T06:52:19;6.47;;;5.03;;
20369;SDS011;10344;47.592;9.600;2024-01-07T06:54:46;6.03;;;5.25;;
20369;SDS011;10344;47.592;9.600;2024-01-07T06:57:14;6.40;;;5.25;;
20369;SDS011;10344;47.592;9.600;2024-01-07T06:59:40;6.20;;;5.30;;
20369;SDS011;10344;47.592;9.600;2024-01-07T07:02:08;5.77;;;4.97;;
20369;SDS011;10344;47.592;9.600;2024-01-07T07:04:34;6.25;;;5.25;;
20369;SDS011;10344;47.592;9.600;2024-01-07T07:06:59;6.80;;;5.60;;
20369;SDS011;10344;47.592;9.600;2024-01-07T07:09:25;6.78;;;5.28;;
20369;SDS011;10344;47.592;9.600;2024-01-07T07:11:51;6.90;;;5.27;;
20369;SDS011;10344;47.592;9.600;2024-01-07T07:14:16;6.43;;;5.27;;
20369;SDS011;10344;47.592;9.600;2024-01-07T07:16:42;5.55;;;4.70;;
20369;SDS011;10344;47.592;9.600;2024-01-07T07:19:07;5.97;;;5.27;;
20369;SDS011;10344;47.592;9.600;2024-01-07T07:21:39;5.67;;;5.07;;
20369;SDS011;10344;47.592;9.600;2024-01-07T07:24:07;6.32;;;5.15;;
20369;SDS011;10344;47.592;9.600;2024-01-07T07:26:33;6.10;;;5.03;;
20369;SDS011;10344;47.592;9.600;2024-01-07T07:29:00;6.85;;;5.18;;
20369;SDS011;10344;47.592;9.600;2024-01-07T07:31:27;6.35;;;5.07;;
20369;SDS011;10344;47.592;9.600;2024-01-07T07:33:52;6.00;;;5.20;;
20369;SDS011;10344;47.592;9.600;2024-01-07T07:36:18;6.03;;;4.97;;
20369;SDS011;10344;47.592;9.600;2024-01-07T07:38:43;5.83;;;5.00;;
20369;SDS011;10344;47.592;9.600;2024-01-07T07:41:09;6.13;;;5.07;;
20369;SDS011;10344;47.592;9.600;2024-01-07T07:43:34;6.63;;;5.43;;
20369;SDS011;10344;47.592;9.600;2024-01-07T07:46:00;6.77;;;5.30;;
20369;SDS011;10344;47.592;9.600;2024-01-07T07:48:28;7.07;;;5.38;;
20369;SDS011;10344;47.592;9.600;2024-01-07T07:50:55;6.57;;;5.53;;
20369;SDS011;10344;47.592;9.600;2024-01-07T07:53:20;6.38;;;5.32;;
20369;SDS011;10344;47.592;9.600;2024-01-07T07:55:46;6.22;;;5.15;;
20369;SDS011;10344;47.592;9.600;2024-01-07T07:58:12;5.90;;;5.27;;
20369;SDS011;10344;47.592;9.600;2024-01-07T08:00:45;6.40;;;5.22;;
20369;SDS011;10344;47.592;9.600;2024-01-07T08:03:10;7.18;;;5.95;;
20369;SDS011;10344;47.592;9.600;2024-01-07T08:05:38;5.97;;;5.03;;
20369;SDS011;10344;47.592;9.600;2024-01-07T08:08:05;6.65;;;5.28;;
20369;SDS011;10344;47.592;9.600;2024-01-07T08:10:33;7.30;;;5.72;;
20369;SDS011;10344;47.592;9.600;2024-01-07T08:13:00;5.40;;;4.60;;
20369;SDS011;10344;47.592;9.600;2024-01-07T08:15:26;6.38;;;5.20;;
20369;SDS011;10344;47.592;9.600;2024-01-07T08:17:52;7.13;;;5.75;;
20369;SDS011;10344;47.592;9.600;2024-01-07T08:20:17;7.10;;;5.97;;
20369;SDS011;10344;47.592;9.600;2024-01-07T08:22:45;5.43;;;4.90;;
20369;SDS011;10344;47.592;9.600;2024-01-07T08:25:11;6.03;;;4.97;;
20369;SDS011;10344;47.592;9.600;2024-01-07T08:27:36;5.57;;;4.77;;
20369;SDS011;10344;47.592;9.600;2024-01-07T08:30:03;5.68;;;5.07;;
20369;SDS011;10344;47.592;9.600;2024-01-07T08:32:29;6.43;;;5.07;;
20369;SDS011;10344;47.592;9.600;2024-01-07T08:34:54;5.93;;;4.87;;
20369;SDS011;10344;47.592;9.600;2024-01-07T08:37:25;5.70;;;4.85;;
20369;SDS011;10344;47.592;9.600;2024-01-07T08:39:50;5.50;;;4.60;;
20369;SDS011;10344;47.592;9.600;2024-01-07T08:42:16;6.23;;;4.80;;
20369;SDS011;10344;47.592;9.600;2024-01-07T08:44:42;5.57;;;4.83;;
20369;SDS011;10344;47.592;9.600;2024-01-07T08:47:07;6.28;;;4.78;;
20369;SDS011;10344;47.592;9.600;2024-01-07T08:49:33;6.27;;;5.10;;
20369;SDS011;10344;47.592;9.600;2024-01-07T08:51:59;5.85;;;5.20;;
20369;SDS011;10344;47.592;9.600;2024-01-07T08:54:27;5.90;;;5.07;;
20369;SDS011;10344;47.592;9.600;2024-01-07T08:56:52;5.57;;;4.97;;
20369;SDS011;10344;47.592;9.600;2024-01-07T08:59:21;5.72;;;5.13;;
20369;SDS011;10344;47.592;9.600;2024-01-07T09:01:49;5.53;;;4.80;;
20369;SDS011;10344;47.592;9.600;2024-01-07T09:04:14;6.20;;;5.32;;
20369;SDS011;10344;47.592;9.600;2024-01-07T09:06:42;5.75;;;4.93;;
20369;SDS011;10344;47.592;9.600;2024-01-07T09:09:16;5.82;;;5.05;;
20369;SDS011;10344;47.592;9.600;2024-01-07T09:11:41;6.13;;;5.00;;
20369;SDS011;10344;47.592;9.600;2024-01-07T09:14:07;6.40;;;5.20;;
20369;SDS011;10344;47.592;9.600;2024-01-07T09:16:33;7.30;;;5.50;;
20369;SDS011;10344;47.592;9.600;2024-01-07T09:18:59;7.05;;;5.72;;
20369;SDS011;10344;47.592;9.600;2024-01-07T09:21:27;6.65;;;5.22;;
20369;SDS011;10344;47.592;9.600;2024-01-07T09:23:52;5.67;;;5.07;;
20369;SDS011;10344;47.592;9.600;2024-01-07T09:26:20;6.93;;;5.70;;
20369;SDS011;10344;47.592;9.600;2024-01-07T09:28:46;7.22;;;6.00;;
20369;SDS011;10344;47.592;9.600;2024-01-07T09:31:14;6.32;;;5.32;;
20369;SDS011;10344;47.592;9.600;2024-01-07T09:33:40;8.00;;;6.20;;
20369;SDS011;10344;47.592;9.600;2024-01-07T09:36:06;6.97;;;5.70;;
20369;SDS011;10344;47.592;9.600;2024-01-07T09:38:35;6.75;;;5.70;;
20369;SDS011;10344;47.592;9.600;2024-01-07T09:41:01;7.27;;;6.13;;
20369;SDS011;10344;47.592;9.600;2024-01-07T09:43:27;6.70;;;5.93;;
20369;SDS011;10344;47.592;9.600;2024-01-07T09:45:53;6.57;;;5.80;;
20369;SDS011;10344;47.592;9.600;2024-01-07T09:48:21;7.13;;;6.25;;
20369;SDS011;10344;47.592;9.600;2024-01-07T09:50:47;7.30;;;5.78;;
20369;SDS011;10344;47.592;9.600;2024-01-07T09:53:16;6.90;;;6.15;;
20369;SDS011;10344;47.592;9.600;2024-01-07T09:55:57;6.13;;;5.53;;
20369;SDS011;10344;47.592;9.600;2024-01-07T09:58:43;7.00;;;6.20;;
20369;SDS011;10344;47.592;9.600;2024-01-07T10:01:10;7.57;;;6.03;;
20369;SDS011;10344;47.592;9.600;2024-01-07T10:03:36;6.18;;;5.57;;
20369;SDS011;10344;47.592;9.600;2024-01-07T10:06:02;7.07;;;6.35;;
20369;SDS011;10344;47.592;9.600;2024-01-07T10:08:28;6.72;;;6.00;;
20369;SDS011;10344;47.592;9.600;2024-01-07T10:10:54;6.67;;;5.97;;
20369;SDS011;10344;47.592;9.600;2024-01-07T10:13:20;7.00;;;5.97;;
20369;SDS011;10344;47.592;9.600;2024-01-07T10:15:47;6.73;;;5.73;;
20369;SDS011;10344;47.592;9.600;2024-01-07T10:18:13;6.25;;;5.53;;
20369;SDS011;10344;47.592;9.600;2024-01-07T10:20:39;6.53;;;5.80;;
20369;SDS011;10344;47.592;9.600;2024-01-07T10:23:04;6.40;;;5.47;;
20369;SDS011;10344;47.592;9.600;2024-01-07T10:25:32;6.38;;;5.47;;
20369;SDS011;10344;47.592;9.600;2024-01-07T10:27:59;6.30;;;5.60;;
20369;SDS011;10344;47.592;9.600;2024-01-07T10:30:26;6.33;;;5.67;;
20369;SDS011;10344;47.592;9.600;2024-01-07T10:32:57;6.63;;;5.55;;
20369;SDS011;10344;47.592;9.600;2024-01-07T10:35:32;5.78;;;5.18;;
20369;SDS011;10344;47.592;9.600;2024-01-07T10:38:00;6.37;;;5.37;;
20369;SDS011;10344;47.592;9.600;2024-01-07T10:40:29;5.93;;;5.15;;
20369;SDS011;10344;47.592;9.600;2024-01-07T10:42:56;6.25;;;5.20;;
20369;SDS011;10344;47.592;9.600;2024-01-07T10:45:24;6.53;;;5.35;;
20369;SDS011;10344;47.592;9.600;2024-01-07T10:47:54;6.38;;;5.50;;
20369;SDS011;10344;47.592;9.600;2024-01-07T10:50:24;5.53;;;4.93;;
20369;SDS011;10344;47.592;9.600;2024-01-07T10:52:54;6.25;;;5.20;;
20369;SDS011;10344;47.592;9.600;2024-01-07T10:55:23;5.80;;;5.20;;
20369;SDS011;10344;47.592;9.600;2024-01-07T10:57:54;6.07;;;5.47;;
20369;SDS011;10344;47.592;9.600;2024-01-07T11:00:24;6.53;;;5.47;;
20369;SDS011;10344;47.592;9.600;2024-01-07T11:08:05;6.97;;;6.28;;
20369;SDS011;10344;47.592;9.600;2024-01-07T11:10:48;6.83;;;6.03;;
20369;SDS011;10344;47.592;9.600;2024-01-07T11:13:36;6.15;;;5.55;;
20369;SDS011;10344;47.592;9.600;2024-01-07T11:16:09;6.05;;;5.45;;
20369;SDS011;10344;47.592;9.600;2024-01-07T11:18:37;6.75;;;5.60;;
20369;SDS011;10344;47.592;9.600;2024-01-07T11:21:05;9.45;;;7.47;;
20369;SDS011;10344;47.592;9.600;2024-01-07T11:23:31;6.68;;;5.82;;
20369;SDS011;10344;47.592;9.600;2024-01-07T11:26:02;6.07;;;5.47;;
20369;SDS011;10344;47.592;9.600;2024-01-07T11:31:17;6.20;;;5.32;;
20369;SDS011;10344;47.592;9.600;2024-01-07T11:34:08;7.30;;;5.80;;
20369;SDS011;10344;47.592;9.600;2024-01-07T11:36:37;7.38;;;5.68;;
20369;SDS011;10344;47.592;9.600;2024-01-07T11:39:03;9.63;;;6.33;;
20369;SDS011;10344;47.592;9.600;2024-01-07T11:41:34;10.57;;;7.20;;
20369;SDS011;10344;47.592;9.600;2024-01-07T11:44:01;6.80;;;5.50;;
20369;SDS011;10344;47.592;9.600;2024-01-07T11:46:36;5.70;;;5.10;;
20369;SDS011;10344;47.592;9.600;2024-01-07T11:49:01;5.97;;;5.10;;
20369;SDS011;10344;47.592;9.600;2024-01-07T11:51:30;5.25;;;4.75;;
20369;SDS011;10344;47.592;9.600;2024-01-07T11:54:00;4.60;;;4.10;;
20369;SDS011;10344;47.592;9.600;2024-01-07T11:56:29;5.32;;;4.60;;
20369;SDS011;10344;47.592;9.600;2024-01-07T11:58:54;4.80;;;4.40;;
20369;SDS011;10344;47.592;9.600;2024-01-07T12:01:24;4.70;;;4.18;;
20369;SDS011;10344;47.592;9.600;2024-01-07T12:03:58;5.13;;;4.47;;
20369;SDS011;10344;47.592;9.600;2024-01-07T12:06:26;4.93;;;4.25;;
20369;SDS011;10344;47.592;9.600;2024-01-07T12:08:52;4.78;;;4.28;;
20369;SDS011;10344;47.592;9.600;2024-01-07T12:11:17;5.40;;;4.30;;
20369;SDS011;10344;47.592;9.600;2024-01-07T12:13:44;4.60;;;4.03;;
20369;SDS011;10344;47.592;9.600;2024-01-07T12:16:10;4.70;;;4.18;;
20369;SDS011;10344;47.592;9.600;2024-01-07T12:18:36;4.75;;;4.13;;
20369;SDS011;10344;47.592;9.600;2024-01-07T12:21:03;5.57;;;4.05;;
20369;SDS011;10344;47.592;9.600;2024-01-07T12:23:33;3.95;;;3.55;;
20369;SDS011;10344;47.592;9.600;2024-01-07T12:26:06;4.13;;;3.40;;
20369;SDS011;10344;47.592;9.600;2024-01-07T12:28:34;3.78;;;3.40;;
20369;SDS011;10344;47.592;9.600;2024-01-07T12:30:59;4.28;;;3.85;;
20369;SDS011;10344;47.592;9.600;2024-01-07T12:33:33;3.90;;;3.47;;
20369;SDS011;10344;47.592;9.600;2024-01-07T12:35:59;3.65;;;3.33;;
20369;SDS011;10344;47.592;9.600;2024-01-07T12:38:27;3.95;;;3.55;;
20369;SDS011;10344;47.592;9.600;2024-01-07T12:40:56;4.10;;;3.47;;
20369;SDS011;10344;47.592;9.600;2024-01-07T12:43:22;3.97;;;3.33;;
20369;SDS011;10344;47.592;9.600;2024-01-07T12:45:48;4.13;;;3.73;;
20369;SDS011;10344;47.592;9.600;2024-01-07T12:48:13;4.57;;;3.83;;
20369;SDS011;10344;47.592;9.600;2024-01-07T12:50:39;4.53;;;3.63;;
20369;SDS011;10344;47.592;9.600;2024-01-07T12:53:07;3.95;;;3.50;;
20369;SDS011;10344;47.592;9.600;2024-01-07T12:55:32;3.87;;;3.47;;
20369;SDS011;10344;47.592;9.600;2024-01-07T12:57:58;4.53;;;3.40;;
20369;SDS011;10344;47.592;9.600;2024-01-07T13:00:24;4.25;;;3.30;;
20369;SDS011;10344;47.592;9.600;2024-01-07T13:02:51;4.17;;;3.60;;
20369;SDS011;10344;47.592;9.600;2024-01-07T13:05:17;4.30;;;3.60;;
20369;SDS011;10344;47.592;9.600;2024-01-07T13:07:44;3.58;;;3.25;;
20369;SDS011;10344;47.592;9.600;2024-01-07T13:10:12;4.18;;;3.60;;
20369;SDS011;10344;47.592;9.600;2024-01-07T13:12:38;4.45;;;3.67;;
20369;SDS011;10344;47.592;9.600;2024-01-07T13:15:06;4.03;;;3.50;;
20369;SDS011;10344;47.592;9.600;2024-01-07T13:17:34;3.65;;;3.20;;
20369;SDS011;10344;47.592;9.600;2024-01-07T13:20:02;3.72;;;3.25;;
20369;SDS011;10344;47.592;9.600;2024-01-07T13:22:31;4.07;;;3.20;;
20369;SDS011;10344;47.592;9.600;2024-01-07T13:24:57;3.63;;;3.17;;
20369;SDS011;10344;47.592;9.600;2024-01-07T13:27:25;4.38;;;3.60;;
20369;SDS011;10344;47.592;9.600;2024-01-07T13:29:51;5.00;;;3.83;;
20369;SDS011;10344;47.592;9.600;2024-01-07T13:32:16;4.93;;;3.80;;
20369;SDS011;10344;47.592;9.600;2024-01-07T13:34:43;4.13;;;3.73;;
20369;SDS011;10344;47.592;9.600;2024-01-07T13:37:09;4.63;;;3.70;;
20369;SDS011;10344;47.592;9.600;2024-01-07T13:39:35;4.10;;;3.38;;
20369;SDS011;10344;47.592;9.600;2024-01-07T13:42:03;3.87;;;3.30;;
20369;SDS011;10344;47.592;9.600;2024-01-07T13:44:29;4.27;;;3.27;;
20369;SDS011;10344;47.592;9.600;2024-01-07T13:46:59;4.35;;;3.40;;
20369;SDS011;10344;47.592;9.600;2024-01-07T13:49:27;3.47;;;3.13;;
20369;SDS011;10344;47.592;9.600;2024-01-07T13:51:55;4.30;;;3.43;;
20369;SDS011;10344;47.592;9.600;2024-01-07T13:54:21;4.63;;;3.50;;
20369;SDS011;10344;47.592;9.600;2024-01-07T13:56:46;4.03;;;3.30;;
20369;SDS011;10344;47.592;9.600;2024-01-07T13:59:12;4.22;;;3.28;;
20369;SDS011;10344;47.592;9.600;2024-01-07T14:01:38;3.67;;;3.20;;
20369;SDS011;10344;47.592;9.600;2024-01-07T14:04:04;3.72;;;3.28;;
20369;SDS011;10344;47.592;9.600;2024-01-07T14:06:30;4.07;;;3.67;;
20369;SDS011;10344;47.592;9.600;2024-01-07T14:08:56;4.53;;;3.42;;
20369;SDS011;10344;47.592;9.600;2024-01-07T14:11:24;4.15;;;3.75;;
20369;SDS011;10344;47.592;9.600;2024-01-07T14:13:53;4.63;;;3.75;;
20369;SDS011;10344;47.592;9.600;2024-01-07T14:16:20;4.38;;;3.92;;
20369;SDS011;10344;47.592;9.600;2024-01-07T14:18:48;4.47;;;3.80;;
20369;SDS011;10344;47.592;9.600;2024-01-07T14:21:13;4.57;;;3.80;;
20369;SDS011;10344;47.592;9.600;2024-01-07T14:23:39;4.50;;;3.72;;
20369;SDS011;10344;47.592;9.600;2024-01-07T14:26:05;4.73;;;3.73;;
20369;SDS011;10344;47.592;9.600;2024-01-07T14:28:33;4.22;;;3.50;;
20369;SDS011;10344;47.592;9.600;2024-01-07T14:31:01;4.45;;;3.63;;
20369;SDS011;10344;47.592;9.600;2024-01-07T14:33:28;4.88;;;3.78;;
20369;SDS011;10344;47.592;9.600;2024-01-07T14:35:54;5.35;;;3.90;;
20369;SDS011;10344;47.592;9.600;2024-01-07T14:38:20;5.23;;;4.10;;
20369;SDS011;10344;47.592;9.600;2024-01-07T14:40:47;4.75;;;4.13;;
20369;SDS011;10344;47.592;9.600;2024-01-07T14:43:13;5.80;;;4.30;;
20369;SDS011;10344;47.592;9.600;2024-01-07T14:45:39;5.75;;;4.15;;
20369;SDS011;10344;47.592;9.600;2024-01-07T14:48:05;5.53;;;4.07;;
20369;SDS011;10344;47.592;9.600;2024-01-07T14:50:31;4.82;;;3.78;;
20369;SDS011;10344;47.592;9.600;2024-01-07T14:52:57;5.53;;;4.00;;
20369;SDS011;10344;47.592;9.600;2024-01-07T14:55:23;5.38;;;4.07;;